sensor_id;sensor_type;location;lat;lon;timestamp;pressure;altitude;pressure_sealevel;temperature;humidity
42603;BME280;28233;55.748;48.752;2022-07-21T00:01:18;98373.75;;;16.63;81.49
42603;BME280;28233;55.748;48.752;2022-07-21T00:03:21;98378.09;;;16.64;81.48
42603;BME280;28233;55.748;48.752;2022-07-21T00:05:24;98368.59;;;16.61;81.51
42603;BME280;28233;55.748;48.752;2022-07-21T00:07:27;98372.56;;;16.64;81.38
42603;BME280;28233;55.748;48.752;2022-07-21T00:09:29;98374.13;;;16.65;81.52
42603;BME280;28233;55.748;48.752;2022-07-21T00:11:32;98370.97;;;16.63;81.39
42603;BME280;28233;55.748;48.752;2022-07-21T00:13:35;98374.13;;;16.65;81.11
42603;BME280;28233;55.748;48.752;2022-07-21T00:15:37;98376.91;;;16.65;81.31
42603;BME280;28233;55.748;48.752;2022-07-21T00:17:40;98367.00;;;16.60;80.94
42603;BME280;28233;55.748;48.752;2022-07-21T00:19:43;98377.72;;;16.65;81.29
42603;BME280;28233;55.748;48.752;2022-07-21T00:21:45;98377.72;;;16.65;81.09
42603;BME280;28233;55.748;48.752;2022-07-21T00:23:48;98376.16;;;16.68;81.18
42603;BME280;28233;55.748;48.752;2022-07-21T00:25:51;98371.00;;;16.70;80.95
42603;BME280;28233;55.748;48.752;2022-07-21T00:27:54;98381.31;;;16.73;80.94
42603;BME280;28233;55.748;48.752;2022-07-21T00:29:57;98373.41;;;16.75;80.98
42603;BME280;28233;55.748;48.752;2022-07-21T00:32:00;98381.38;;;16.80;80.70
42603;BME280;28233;55.748;48.752;2022-07-21T00:34:03;98381.78;;;16.82;80.55
42603;BME280;28233;55.748;48.752;2022-07-21T00:36:06;98377.00;;;16.83;80.44
42603;BME280;28233;55.748;48.752;2022-07-21T00:38:08;98371.09;;;16.84;80.44
42603;BME280;28233;55.748;48.752;2022-07-21T00:40:12;98383.75;;;16.85;80.28
42603;BME280;28233;55.748;48.752;2022-07-21T00:42:27;98373.84;;;16.88;80.13
42603;BME280;28233;55.748;48.752;2022-07-21T00:44:30;98381.00;;;16.89;80.08
42603;BME280;28233;55.748;48.752;2022-07-21T00:46:33;98377.81;;;16.90;79.90
42603;BME280;28233;55.748;48.752;2022-07-21T00:48:36;98379.03;;;16.89;79.91
42603;BME280;28233;55.748;48.752;2022-07-21T00:50:38;98378.63;;;16.91;79.80
42603;BME280;28233;55.748;48.752;2022-07-21T00:52:41;98384.56;;;16.93;80.11
42603;BME280;28233;55.748;48.752;2022-07-21T00:54:44;98382.97;;;16.92;80.17
42603;BME280;28233;55.748;48.752;2022-07-21T00:56:47;98377.44;;;16.92;80.13
42603;BME280;28233;55.748;48.752;2022-07-21T00:58:50;98382.19;;;16.92;80.40
42603;BME280;28233;55.748;48.752;2022-07-21T01:00:53;98385.38;;;16.94;80.64
42603;BME280;28233;55.748;48.752;2022-07-21T01:02:57;98393.28;;;16.95;80.78
42603;BME280;28233;55.748;48.752;2022-07-21T01:05:00;98385.72;;;16.88;80.85
42603;BME280;28233;55.748;48.752;2022-07-21T01:07:05;98386.56;;;16.89;80.84
42603;BME280;28233;55.748;48.752;2022-07-21T01:09:07;98390.09;;;16.86;80.91
42603;BME280;28233;55.748;48.752;2022-07-21T01:11:12;98386.16;;;16.87;80.61
42603;BME280;28233;55.748;48.752;2022-07-21T01:13:15;98392.88;;;16.89;81.62
42603;BME280;28233;55.748;48.752;2022-07-21T01:15:19;98389.72;;;16.84;82.47
42603;BME280;28233;55.748;48.752;2022-07-21T01:17:22;98388.84;;;16.76;82.93
42603;BME280;28233;55.748;48.752;2022-07-21T01:19:24;98393.19;;;16.74;83.29
42603;BME280;28233;55.748;48.752;2022-07-21T01:21:34;98393.19;;;16.74;83.26
42603;BME280;28233;55.748;48.752;2022-07-21T01:23:36;98390.81;;;16.76;83.72
42603;BME280;28233;55.748;48.752;2022-07-21T01:25:39;98386.06;;;16.76;84.35
42603;BME280;28233;55.748;48.752;2022-07-21T01:27:42;98391.63;;;16.76;84.42
42603;BME280;28233;55.748;48.752;2022-07-21T01:29:46;98397.16;;;16.76;84.54
42603;BME280;28233;55.748;48.752;2022-07-21T01:31:49;98394.81;;;16.75;84.82
42603;BME280;28233;55.748;48.752;2022-07-21T01:33:52;98402.31;;;16.74;85.01
42603;BME280;28233;55.748;48.752;2022-07-21T01:35:54;98399.16;;;16.72;85.29
42603;BME280;28233;55.748;48.752;2022-07-21T01:37:58;98402.31;;;16.74;85.29
42603;BME280;28233;55.748;48.752;2022-07-21T01:40:01;98403.09;;;16.71;85.61
42603;BME280;28233;55.748;48.752;2022-07-21T01:42:22;98401.50;;;16.70;86.02
42603;BME280;28233;55.748;48.752;2022-07-21T01:44:26;98395.56;;;16.68;86.22
42603;BME280;28233;55.748;48.752;2022-07-21T01:46:30;98399.13;;;16.68;86.35
42603;BME280;28233;55.748;48.752;2022-07-21T01:48:33;98407.44;;;16.68;86.29
42603;BME280;28233;55.748;48.752;2022-07-21T01:50:36;98400.69;;;16.69;86.62
42603;BME280;28233;55.748;48.752;2022-07-21T01:52:39;98392.78;;;16.68;86.24
42603;BME280;28233;55.748;48.752;2022-07-21T01:54:42;98393.16;;;16.66;86.60
42603;BME280;28233;55.748;48.752;2022-07-21T01:56:44;98405.06;;;16.67;86.89
42603;BME280;28233;55.748;48.752;2022-07-21T01:58:48;98393.97;;;16.67;87.07
42603;BME280;28233;55.748;48.752;2022-07-21T02:00:52;98400.69;;;16.66;86.88
42603;BME280;28233;55.748;48.752;2022-07-21T02:02:54;98402.69;;;16.69;87.48
42603;BME280;28233;55.748;48.752;2022-07-21T02:04:57;98392.00;;;16.67;87.59
42603;BME280;28233;55.748;48.752;2022-07-21T02:07:01;98396.38;;;16.72;87.71
42603;BME280;28233;55.748;48.752;2022-07-21T02:09:04;98398.38;;;16.75;87.45
42603;BME280;28233;55.748;48.752;2022-07-21T02:11:10;98399.53;;;16.74;87.16
42603;BME280;28233;55.748;48.752;2022-07-21T02:13:13;98398.38;;;16.79;87.06
42603;BME280;28233;55.748;48.752;2022-07-21T02:15:35;98398.38;;;16.79;86.79
42603;BME280;28233;55.748;48.752;2022-07-21T02:17:38;98401.97;;;16.83;86.96
42603;BME280;28233;55.748;48.752;2022-07-21T02:19:41;98403.59;;;16.87;86.80
42603;BME280;28233;55.748;48.752;2022-07-21T02:21:43;98406.75;;;16.89;86.61
42603;BME280;28233;55.748;48.752;2022-07-21T02:23:46;98407.16;;;16.88;86.62
42603;BME280;28233;55.748;48.752;2022-07-21T02:25:49;98402.00;;;16.90;86.86
42603;BME280;28233;55.748;48.752;2022-07-21T02:27:52;98405.56;;;16.90;86.72
42603;BME280;28233;55.748;48.752;2022-07-21T02:29:55;98409.97;;;16.99;86.26
42603;BME280;28233;55.748;48.752;2022-07-21T02:31:58;98410.78;;;17.03;85.85
42603;BME280;28233;55.748;48.752;2022-07-21T02:34:00;98413.94;;;17.05;85.76
42603;BME280;28233;55.748;48.752;2022-07-21T02:36:03;98410.78;;;17.06;85.84
42603;BME280;28233;55.748;48.752;2022-07-21T02:38:06;98411.97;;;17.09;85.83
42603;BME280;28233;55.748;48.752;2022-07-21T02:40:09;98416.34;;;17.10;85.92
42603;BME280;28233;55.748;48.752;2022-07-21T02:42:12;98409.63;;;17.15;85.80
42603;BME280;28233;55.748;48.752;2022-07-21T02:44:14;98415.16;;;17.18;85.56
42603;BME280;28233;55.748;48.752;2022-07-21T02:46:17;98409.63;;;17.18;85.72
42603;BME280;28233;55.748;48.752;2022-07-21T02:48:20;98415.19;;;17.32;86.03
42603;BME280;28233;55.748;48.752;2022-07-21T02:50:31;98414.03;;;17.41;86.09
42603;BME280;28233;55.748;48.752;2022-07-21T02:52:34;98414.41;;;17.46;85.48
42603;BME280;28233;55.748;48.752;2022-07-21T02:54:40;98414.03;;;17.55;85.24
42603;BME280;28233;55.748;48.752;2022-07-21T02:56:42;98424.78;;;17.64;84.94
42603;BME280;28233;55.748;48.752;2022-07-21T02:58:45;98416.03;;;17.72;84.70
42603;BME280;28233;55.748;48.752;2022-07-21T03:02:52;98413.28;;;17.90;83.48
42603;BME280;28233;55.748;48.752;2022-07-21T03:04:55;98410.91;;;18.00;82.87
42603;BME280;28233;55.748;48.752;2022-07-21T03:06:57;98410.88;;;18.10;82.54
42603;BME280;28233;55.748;48.752;2022-07-21T03:09:00;98418.03;;;18.19;82.25
42603;BME280;28233;55.748;48.752;2022-07-21T03:11:02;98407.66;;;18.26;82.06
42603;BME280;28233;55.748;48.752;2022-07-21T03:13:06;98412.03;;;18.31;81.91
42603;BME280;28233;55.748;48.752;2022-07-21T03:15:09;98406.06;;;18.36;81.69
42603;BME280;28233;55.748;48.752;2022-07-21T03:17:12;98404.84;;;18.44;81.14
42603;BME280;28233;55.748;48.752;2022-07-21T03:19:14;98402.06;;;18.51;81.58
42603;BME280;28233;55.748;48.752;2022-07-21T03:21:17;98405.19;;;18.57;81.19
42603;BME280;28233;55.748;48.752;2022-07-21T03:23:20;98407.97;;;18.61;80.67
42603;BME280;28233;55.748;48.752;2022-07-21T03:25:23;98404.75;;;18.69;80.15
42603;BME280;28233;55.748;48.752;2022-07-21T03:27:26;98412.31;;;18.72;79.41
42603;BME280;28233;55.748;48.752;2022-07-21T03:29:28;98414.31;;;18.79;79.40
42603;BME280;28233;55.748;48.752;2022-07-21T03:31:31;98415.47;;;18.85;79.01
42603;BME280;28233;55.748;48.752;2022-07-21T03:33:34;98416.25;;;18.89;79.13
42603;BME280;28233;55.748;48.752;2022-07-21T03:35:37;98416.22;;;18.96;78.67
42603;BME280;28233;55.748;48.752;2022-07-21T03:37:47;98414.59;;;19.03;77.94
42603;BME280;28233;55.748;48.752;2022-07-21T03:39:51;98405.44;;;19.06;78.54
42603;BME280;28233;55.748;48.752;2022-07-21T03:41:53;98417.75;;;19.08;78.62
42603;BME280;28233;55.748;48.752;2022-07-21T03:43:56;98419.31;;;19.13;78.67
42603;BME280;28233;55.748;48.752;2022-07-21T03:45:59;98414.88;;;19.22;78.28
42603;BME280;28233;55.748;48.752;2022-07-21T03:48:03;98416.44;;;19.27;77.34
42603;BME280;28233;55.748;48.752;2022-07-21T03:50:07;98425.53;;;19.35;76.88
42603;BME280;28233;55.748;48.752;2022-07-21T03:52:10;98419.97;;;19.35;76.68
42603;BME280;28233;55.748;48.752;2022-07-21T03:54:12;98421.91;;;19.41;76.96
42603;BME280;28233;55.748;48.752;2022-07-21T03:56:15;98425.44;;;19.49;77.17
42603;BME280;28233;55.748;48.752;2022-07-21T03:58:17;98424.25;;;19.50;77.11
42603;BME280;28233;55.748;48.752;2022-07-21T04:00:23;98431.00;;;19.53;77.03
42603;BME280;28233;55.748;48.752;2022-07-21T04:02:27;98428.59;;;19.55;76.62
42603;BME280;28233;55.748;48.752;2022-07-21T04:04:29;98427.78;;;19.58;77.01
42603;BME280;28233;55.748;48.752;2022-07-21T04:06:32;98428.09;;;19.67;77.10
42603;BME280;28233;55.748;48.752;2022-07-21T04:08:34;98420.56;;;19.71;77.02
42603;BME280;28233;55.748;48.752;2022-07-21T04:10:38;98426.50;;;19.73;76.81
42603;BME280;28233;55.748;48.752;2022-07-21T04:12:41;98418.94;;;19.74;77.47
42603;BME280;28233;55.748;48.752;2022-07-21T04:14:44;98422.44;;;19.81;77.79
42603;BME280;28233;55.748;48.752;2022-07-21T04:16:46;98425.56;;;19.91;78.03
42603;BME280;28233;55.748;48.752;2022-07-21T04:18:49;98423.53;;;19.95;78.10
42603;BME280;28233;55.748;48.752;2022-07-21T04:20:52;98429.06;;;20.02;78.17
42603;BME280;28233;55.748;48.752;2022-07-21T04:22:55;98424.25;;;20.06;78.12
42603;BME280;28233;55.748;48.752;2022-07-21T04:24:57;98427.75;;;20.14;77.91
42603;BME280;28233;55.748;48.752;2022-07-21T04:27:02;98434.44;;;20.23;77.61
42603;BME280;28233;55.748;48.752;2022-07-21T04:29:05;98424.00;;;20.31;77.38
42603;BME280;28233;55.748;48.752;2022-07-21T04:31:09;98425.16;;;20.34;77.36
42603;BME280;28233;55.748;48.752;2022-07-21T04:33:12;98421.56;;;20.37;76.73
42603;BME280;28233;55.748;48.752;2022-07-21T04:35:15;98423.09;;;20.41;77.02
42603;BME280;28233;55.748;48.752;2022-07-21T04:37:18;98425.06;;;20.44;77.33
42603;BME280;28233;55.748;48.752;2022-07-21T04:39:20;98424.59;;;20.49;77.79
42603;BME280;28233;55.748;48.752;2022-07-21T04:41:23;98422.91;;;20.59;76.83
42603;BME280;28233;55.748;48.752;2022-07-21T04:43:25;98420.13;;;20.59;76.82
42603;BME280;28233;55.748;48.752;2022-07-21T04:45:28;98427.66;;;20.62;77.18
42603;BME280;28233;55.748;48.752;2022-07-21T04:47:30;98430.81;;;20.68;77.11
42603;BME280;28233;55.748;48.752;2022-07-21T04:49:33;98431.13;;;20.74;77.00
42603;BME280;28233;55.748;48.752;2022-07-21T04:51:36;98423.03;;;20.83;77.54
42603;BME280;28233;55.748;48.752;2022-07-21T04:53:38;98424.94;;;20.93;77.02
42603;BME280;28233;55.748;48.752;2022-07-21T04:55:41;98423.72;;;20.94;77.20
42603;BME280;28233;55.748;48.752;2022-07-21T04:57:45;98434.56;;;20.88;76.64
42603;BME280;28233;55.748;48.752;2022-07-21T04:59:49;98425.81;;;20.86;76.79
42603;BME280;28233;55.748;48.752;2022-07-21T05:01:51;98428.50;;;20.94;77.47
42603;BME280;28233;55.748;48.752;2022-07-21T05:03:54;98433.16;;;21.04;77.72
42603;BME280;28233;55.748;48.752;2022-07-21T05:05:57;98430.22;;;21.15;77.11
42603;BME280;28233;55.748;48.752;2022-07-21T05:07:59;98437.25;;;21.26;78.16
42603;BME280;28233;55.748;48.752;2022-07-21T05:10:06;98441.09;;;21.36;76.08
42603;BME280;28233;55.748;48.752;2022-07-21T05:12:09;98429.19;;;21.32;75.81
42603;BME280;28233;55.748;48.752;2022-07-21T05:14:13;98429.66;;;21.27;76.11
42603;BME280;28233;55.748;48.752;2022-07-21T05:16:16;98444.78;;;21.29;76.08
42603;BME280;28233;55.748;48.752;2022-07-21T05:18:19;98435.50;;;21.36;75.28
42603;BME280;28233;55.748;48.752;2022-07-21T05:20:22;98441.50;;;21.35;74.11
42603;BME280;28233;55.748;48.752;2022-07-21T05:22:24;98441.59;;;21.31;73.20
42603;BME280;28233;55.748;48.752;2022-07-21T05:24:27;98436.03;;;21.27;71.89
42603;BME280;28233;55.748;48.752;2022-07-21T05:26:29;98439.59;;;21.28;71.94
42603;BME280;28233;55.748;48.752;2022-07-21T05:28:32;98444.31;;;21.35;72.44
42603;BME280;28233;55.748;48.752;2022-07-21T05:30:35;98441.44;;;21.42;73.05
42603;BME280;28233;55.748;48.752;2022-07-21T05:32:37;98446.50;;;21.50;72.60
42603;BME280;28233;55.748;48.752;2022-07-21T05:34:48;98442.09;;;21.53;71.18
42603;BME280;28233;55.748;48.752;2022-07-21T05:36:51;98446.38;;;21.61;71.08
42603;BME280;28233;55.748;48.752;2022-07-21T05:38:55;98452.19;;;21.70;69.82
42603;BME280;28233;55.748;48.752;2022-07-21T05:40:58;98442.53;;;21.75;70.02
42603;BME280;28233;55.748;48.752;2022-07-21T05:43:09;98448.38;;;21.84;69.99
42603;BME280;28233;55.748;48.752;2022-07-21T05:45:11;98447.50;;;21.91;70.27
42603;BME280;28233;55.748;48.752;2022-07-21T05:47:14;98451.28;;;22.04;70.35
42603;BME280;28233;55.748;48.752;2022-07-21T05:49:16;98452.06;;;22.05;69.28
42603;BME280;28233;55.748;48.752;2022-07-21T05:51:19;98449.13;;;22.12;69.47
42603;BME280;28233;55.748;48.752;2022-07-21T05:53:22;98454.59;;;22.23;69.59
42603;BME280;28233;55.748;48.752;2022-07-21T05:55:25;98454.97;;;22.25;69.18
42603;BME280;28233;55.748;48.752;2022-07-21T05:57:27;98448.91;;;22.26;68.39
42603;BME280;28233;55.748;48.752;2022-07-21T05:59:30;98448.78;;;22.33;69.49
42603;BME280;28233;55.748;48.752;2022-07-21T06:01:33;98451.94;;;22.35;69.06
42603;BME280;28233;55.748;48.752;2022-07-21T06:03:40;98455.97;;;22.34;70.27
42603;BME280;28233;55.748;48.752;2022-07-21T06:05:44;98463.50;;;22.37;71.20
42603;BME280;28233;55.748;48.752;2022-07-21T06:07:47;98455.63;;;22.32;68.56
42603;BME280;28233;55.748;48.752;2022-07-21T06:09:50;98465.22;;;22.31;67.95
42603;BME280;28233;55.748;48.752;2022-07-21T06:11:53;98469.91;;;22.38;68.56
42603;BME280;28233;55.748;48.752;2022-07-21T06:13:55;98469.22;;;22.54;68.03
42603;BME280;28233;55.748;48.752;2022-07-21T06:15:58;98462.34;;;22.58;67.40
42603;BME280;28233;55.748;48.752;2022-07-21T06:18:01;98461.78;;;22.67;66.73
42603;BME280;28233;55.748;48.752;2022-07-21T06:20:06;98472.84;;;22.74;66.12
42603;BME280;28233;55.748;48.752;2022-07-21T06:22:08;98468.31;;;22.80;65.33
42603;BME280;28233;55.748;48.752;2022-07-21T06:24:11;98471.88;;;22.81;64.47
42603;BME280;28233;55.748;48.752;2022-07-21T06:26:14;98470.59;;;22.86;66.52
42603;BME280;28233;55.748;48.752;2022-07-21T06:28:17;98477.78;;;22.87;64.55
42603;BME280;28233;55.748;48.752;2022-07-21T06:30:19;98478.53;;;22.91;65.43
42603;BME280;28233;55.748;48.752;2022-07-21T06:32:22;98476.38;;;22.98;64.39
42603;BME280;28233;55.748;48.752;2022-07-21T06:34:25;98479.34;;;22.88;64.41
42603;BME280;28233;55.748;48.752;2022-07-21T06:36:28;98480.75;;;22.99;63.21
42603;BME280;28233;55.748;48.752;2022-07-21T06:38:30;98481.84;;;23.06;63.01
42603;BME280;28233;55.748;48.752;2022-07-21T06:40:33;98475.00;;;23.07;64.57
42603;BME280;28233;55.748;48.752;2022-07-21T06:42:36;98477.19;;;23.19;63.18
42603;BME280;28233;55.748;48.752;2022-07-21T06:44:38;98469.47;;;23.23;63.43
42603;BME280;28233;55.748;48.752;2022-07-21T06:46:41;98485.84;;;23.25;62.97
42603;BME280;28233;55.748;48.752;2022-07-21T06:48:44;98479.97;;;23.19;61.70
42603;BME280;28233;55.748;48.752;2022-07-21T06:50:47;98487.94;;;23.20;61.94
42603;BME280;28233;55.748;48.752;2022-07-21T06:52:49;98482.06;;;23.15;60.96
42603;BME280;28233;55.748;48.752;2022-07-21T06:54:52;98486.00;;;23.17;60.38
42603;BME280;28233;55.748;48.752;2022-07-21T06:56:54;98488.44;;;23.15;60.26
42603;BME280;28233;55.748;48.752;2022-07-21T06:58:57;98488.81;;;23.17;59.78
42603;BME280;28233;55.748;48.752;2022-07-21T07:01:01;98494.41;;;23.17;59.37
42603;BME280;28233;55.748;48.752;2022-07-21T07:03:03;98493.22;;;23.35;60.30
42603;BME280;28233;55.748;48.752;2022-07-21T07:05:07;98484.88;;;23.51;59.77
42603;BME280;28233;55.748;48.752;2022-07-21T07:07:10;98481.06;;;23.61;60.23
42603;BME280;28233;55.748;48.752;2022-07-21T07:09:12;98493.25;;;23.71;60.64
42603;BME280;28233;55.748;48.752;2022-07-21T07:11:15;98499.50;;;23.79;59.74
42603;BME280;28233;55.748;48.752;2022-07-21T07:13:18;98485.66;;;23.88;58.34
42603;BME280;28233;55.748;48.752;2022-07-21T07:15:41;98486.72;;;23.94;57.62
42603;BME280;28233;55.748;48.752;2022-07-21T07:17:45;98489.78;;;24.00;58.21
42603;BME280;28233;55.748;48.752;2022-07-21T07:19:49;98491.09;;;23.95;57.62
42603;BME280;28233;55.748;48.752;2022-07-21T07:21:54;98483.75;;;24.01;58.08
42603;BME280;28233;55.748;48.752;2022-07-21T07:23:57;98496.78;;;24.08;57.06
42603;BME280;28233;55.748;48.752;2022-07-21T07:25:59;98491.13;;;24.12;55.44
42603;BME280;28233;55.748;48.752;2022-07-21T07:28:02;98492.84;;;24.05;56.00
42603;BME280;28233;55.748;48.752;2022-07-21T07:30:05;98486.63;;;24.14;57.90
42603;BME280;28233;55.748;48.752;2022-07-21T07:32:11;98490.56;;;24.33;56.84
42603;BME280;28233;55.748;48.752;2022-07-21T07:34:14;98491.53;;;24.43;55.90
42603;BME280;28233;55.748;48.752;2022-07-21T07:36:16;98501.63;;;24.40;55.64
42603;BME280;28233;55.748;48.752;2022-07-21T07:38:19;98497.09;;;24.46;56.89
42603;BME280;28233;55.748;48.752;2022-07-21T07:40:22;98498.63;;;24.64;57.68
42603;BME280;28233;55.748;48.752;2022-07-21T07:42:25;98490.19;;;24.64;55.10
42603;BME280;28233;55.748;48.752;2022-07-21T07:44:28;98495.22;;;24.56;53.90
42603;BME280;28233;55.748;48.752;2022-07-21T07:46:31;98502.69;;;24.46;55.16
42603;BME280;28233;55.748;48.752;2022-07-21T07:48:33;98494.78;;;24.58;54.64
42603;BME280;28233;55.748;48.752;2022-07-21T07:50:38;98487.56;;;24.73;53.86
42603;BME280;28233;55.748;48.752;2022-07-21T07:52:43;98486.38;;;24.87;52.47
42603;BME280;28233;55.748;48.752;2022-07-21T07:54:45;98486.41;;;25.00;53.19
42603;BME280;28233;55.748;48.752;2022-07-21T07:56:48;98491.63;;;25.14;51.15
42603;BME280;28233;55.748;48.752;2022-07-21T07:58:51;98486.97;;;25.37;52.31
42603;BME280;28233;55.748;48.752;2022-07-21T08:00:53;98488.22;;;25.48;52.17
42603;BME280;28233;55.748;48.752;2022-07-21T08:02:57;98500.38;;;25.58;52.00
42603;BME280;28233;55.748;48.752;2022-07-21T08:05:00;98496.78;;;25.58;51.14
42603;BME280;28233;55.748;48.752;2022-07-21T08:07:04;98497.78;;;25.51;50.29
42603;BME280;28233;55.748;48.752;2022-07-21T08:09:08;98501.84;;;25.50;50.39
42603;BME280;28233;55.748;48.752;2022-07-21T08:11:11;98501.38;;;25.51;51.75
42603;BME280;28233;55.748;48.752;2022-07-21T08:13:17;98498.00;;;25.44;48.93
42603;BME280;28233;55.748;48.752;2022-07-21T08:15:20;98501.38;;;25.51;50.99
42603;BME280;28233;55.748;48.752;2022-07-21T08:17:23;98506.56;;;25.53;50.29
42603;BME280;28233;55.748;48.752;2022-07-21T08:19:26;98507.94;;;25.61;50.73
42603;BME280;28233;55.748;48.752;2022-07-21T08:21:29;98521.31;;;25.70;49.56
42603;BME280;28233;55.748;48.752;2022-07-21T08:23:53;98514.13;;;25.69;49.18
42603;BME280;28233;55.748;48.752;2022-07-21T08:26:02;98522.78;;;25.62;49.80
42603;BME280;28233;55.748;48.752;2022-07-21T08:28:05;98519.09;;;25.65;49.81
42603;BME280;28233;55.748;48.752;2022-07-21T08:30:08;98517.72;;;25.69;49.52
42603;BME280;28233;55.748;48.752;2022-07-21T08:32:11;98523.56;;;25.75;50.51
42603;BME280;28233;55.748;48.752;2022-07-21T08:34:14;98528.53;;;25.71;49.51
42603;BME280;28233;55.748;48.752;2022-07-21T08:36:18;98520.44;;;25.73;49.02
42603;BME280;28233;55.748;48.752;2022-07-21T08:38:28;98530.66;;;25.54;49.75
42603;BME280;28233;55.748;48.752;2022-07-21T08:40:33;98530.28;;;25.39;49.85
42603;BME280;28233;55.748;48.752;2022-07-21T08:42:37;98535.69;;;25.34;49.73
42603;BME280;28233;55.748;48.752;2022-07-21T08:44:40;98531.13;;;25.23;48.81
42603;BME280;28233;55.748;48.752;2022-07-21T08:46:43;98543.44;;;25.13;49.79
42603;BME280;28233;55.748;48.752;2022-07-21T08:48:45;98549.13;;;24.97;50.74
42603;BME280;28233;55.748;48.752;2022-07-21T08:50:48;98548.41;;;24.63;50.40
42603;BME280;28233;55.748;48.752;2022-07-21T08:52:51;98555.94;;;24.50;51.85
42603;BME280;28233;55.748;48.752;2022-07-21T08:55:01;98561.19;;;24.32;51.73
42603;BME280;28233;55.748;48.752;2022-07-21T08:57:04;98562.94;;;24.25;51.39
42603;BME280;28233;55.748;48.752;2022-07-21T08:59:07;98566.72;;;24.19;52.58
42603;BME280;28233;55.748;48.752;2022-07-21T09:01:10;98565.31;;;24.11;52.82
42603;BME280;28233;55.748;48.752;2022-07-21T09:03:24;98567.22;;;23.97;53.57
42603;BME280;28233;55.748;48.752;2022-07-21T09:05:27;98577.28;;;23.95;54.77
42603;BME280;28233;55.748;48.752;2022-07-21T09:07:30;98572.56;;;23.92;54.47
42603;BME280;28233;55.748;48.752;2022-07-21T09:09:59;98578.75;;;23.83;55.71
42603;BME280;28233;55.748;48.752;2022-07-21T09:12:03;98576.47;;;23.78;54.09
42603;BME280;28233;55.748;48.752;2022-07-21T09:14:09;98581.47;;;23.67;53.96
42603;BME280;28233;55.748;48.752;2022-07-21T09:16:12;98580.97;;;23.72;54.46
42603;BME280;28233;55.748;48.752;2022-07-21T09:18:15;98582.22;;;23.71;54.40
42603;BME280;28233;55.748;48.752;2022-07-21T09:20:25;98584.94;;;23.74;54.05
42603;BME280;28233;55.748;48.752;2022-07-21T09:22:28;98585.22;;;23.80;53.14
42603;BME280;28233;55.748;48.752;2022-07-21T09:24:33;98578.94;;;23.72;53.91
42603;BME280;28233;55.748;48.752;2022-07-21T09:29:09;98575.59;;;23.81;54.99
42603;BME280;28233;55.748;48.752;2022-07-21T09:31:12;98581.66;;;23.96;54.44
42603;BME280;28233;55.748;48.752;2022-07-21T09:33:28;98587.13;;;24.03;54.97
42603;BME280;28233;55.748;48.752;2022-07-21T09:35:33;98582.47;;;24.13;54.50
42603;BME280;28233;55.748;48.752;2022-07-21T09:37:37;98578.19;;;24.24;54.97
42603;BME280;28233;55.748;48.752;2022-07-21T09:39:48;98577.16;;;24.35;54.82
42603;BME280;28233;55.748;48.752;2022-07-21T09:41:51;98572.78;;;24.50;53.74
42603;BME280;28233;55.748;48.752;2022-07-21T09:43:56;98577.91;;;24.55;52.65
42603;BME280;28233;55.748;48.752;2022-07-21T09:46:00;98579.28;;;24.63;53.71
42603;BME280;28233;55.748;48.752;2022-07-21T09:48:05;98575.50;;;24.70;53.91
42603;BME280;28233;55.748;48.752;2022-07-21T09:50:23;98570.69;;;24.71;53.77
42603;BME280;28233;55.748;48.752;2022-07-21T09:52:33;98568.41;;;24.65;53.37
42603;BME280;28233;55.748;48.752;2022-07-21T09:54:36;98575.25;;;24.64;54.79
42603;BME280;28233;55.748;48.752;2022-07-21T09:56:52;98579.81;;;24.58;54.33
42603;BME280;28233;55.748;48.752;2022-07-21T09:58:59;98575.59;;;24.50;54.10
42603;BME280;28233;55.748;48.752;2022-07-21T10:01:02;98577.88;;;24.39;53.59
42603;BME280;28233;55.748;48.752;2022-07-21T10:03:04;98586.53;;;24.28;54.54
42603;BME280;28233;55.748;48.752;2022-07-21T10:05:13;98578.84;;;24.32;55.58
42603;BME280;28233;55.748;48.752;2022-07-21T10:07:17;98584.84;;;24.51;56.08
42603;BME280;28233;55.748;48.752;2022-07-21T10:09:21;98585.69;;;24.64;54.90
42603;BME280;28233;55.748;48.752;2022-07-21T10:11:27;98580.78;;;24.68;53.84
42603;BME280;28233;55.748;48.752;2022-07-21T10:13:32;98581.38;;;24.76;54.40
42603;BME280;28233;55.748;48.752;2022-07-21T10:15:35;98582.84;;;24.97;54.03
42603;BME280;28233;55.748;48.752;2022-07-21T10:17:38;98591.53;;;25.02;53.86
42603;BME280;28233;55.748;48.752;2022-07-21T10:19:52;98590.44;;;25.13;53.55
42603;BME280;28233;55.748;48.752;2022-07-21T10:24:41;98598.88;;;25.29;53.41
42603;BME280;28233;55.748;48.752;2022-07-21T10:27:08;98599.56;;;25.33;53.37
42603;BME280;28233;55.748;48.752;2022-07-21T10:29:10;98604.00;;;25.18;53.04
42603;BME280;28233;55.748;48.752;2022-07-21T10:31:14;98607.59;;;25.02;53.51
42603;BME280;28233;55.748;48.752;2022-07-21T10:33:21;98608.13;;;24.97;52.81
42603;BME280;28233;55.748;48.752;2022-07-21T10:35:29;98607.34;;;24.96;52.83
42603;BME280;28233;55.748;48.752;2022-07-21T10:39:41;98605.47;;;25.06;54.84
42603;BME280;28233;55.748;48.752;2022-07-21T10:41:46;98615.59;;;25.03;56.09
42603;BME280;28233;55.748;48.752;2022-07-21T10:43:49;98618.63;;;25.09;56.60
42603;BME280;28233;55.748;48.752;2022-07-21T10:45:53;98616.28;;;25.24;56.43
42603;BME280;28233;55.748;48.752;2022-07-21T10:47:57;98618.78;;;25.35;56.23
42603;BME280;28233;55.748;48.752;2022-07-21T10:50:01;98621.19;;;25.49;55.87
42603;BME280;28233;55.748;48.752;2022-07-21T10:54:36;98619.22;;;25.62;54.72
42603;BME280;28233;55.748;48.752;2022-07-21T10:56:39;98625.69;;;25.76;54.04
42603;BME280;28233;55.748;48.752;2022-07-21T10:58:42;98623.88;;;25.82;53.76
42603;BME280;28233;55.748;48.752;2022-07-21T11:00:52;98643.69;;;25.78;53.39